Time;durP1;ratioP1;P1;durP2;ratioP2;P2;SDS_P1;SDS_P2;PMS_P1;PMS_P2;Temp;Humidity;BMP_temperature;BMP_pressure;BME280_temperature;BME280_humidity;BME280_pressure;Samples;Min_cycle;Max_cycle;Signal;HPM_P1;HPM_P2
2021/11/09 00:01:34;;;;;;;17.10;9.02;;;;;;;8.21;100.00;101679.22;5019810;28;20060;-62
2021/11/09 00:04:05;;;;;;;20.52;9.60;;;;;;;8.19;100.00;101686.25;5024203;28;20045;-61
2021/11/09 00:06:39;;;;;;;22.00;9.40;;;;;;;8.16;100.00;101689.00;5019931;28;20058;-61
2021/11/09 00:09:16;;;;;;;15.75;9.70;;;;;;;8.13;100.00;101692.56;5017530;28;20049;-62
2021/11/09 00:11:47;;;;;;;22.40;9.82;;;;;;;8.16;100.00;101689.88;5024711;28;20037;-62
2021/11/09 00:14:20;;;;;;;21.10;9.98;;;;;;;8.16;100.00;101683.75;5023399;28;20033;-60
2021/11/09 00:16:47;;;;;;;18.00;9.88;;;;;;;8.13;100.00;101688.19;5022066;28;20064;-62
2021/11/09 00:19:15;;;;;;;18.17;10.35;;;;;;;8.17;100.00;101694.19;5019953;28;20522;-61
2021/11/09 00:21:45;;;;;;;23.15;11.27;;;;;;;8.17;100.00;101703.84;5024980;28;20052;-61
2021/11/09 00:24:12;;;;;;;21.20;10.48;;;;;;;8.14;100.00;101694.28;5020607;28;20196;-60
2021/11/09 00:26:42;;;;;;;25.85;11.00;;;;;;;8.15;100.00;101703.00;5016800;28;20133;-63
2021/11/09 00:29:09;;;;;;;21.33;10.85;;;;;;;8.12;100.00;101702.22;5019556;28;20049;-62
2021/11/09 00:31:37;;;;;;;23.13;11.00;;;;;;;8.12;100.00;101703.97;5028611;28;20054;-61
2021/11/09 00:34:07;;;;;;;22.05;11.45;;;;;;;8.16;100.00;101702.13;5018635;28;20533;-62
2021/11/09 00:36:36;;;;;;;23.83;11.60;;;;;;;8.15;100.00;101711.75;5021880;28;20048;-62
2021/11/09 00:39:06;;;;;;;21.88;10.63;;;;;;;8.12;100.00;101711.84;5016575;28;20064;-61
2021/11/09 00:41:33;;;;;;;22.58;11.55;;;;;;;8.09;100.00;101712.78;5023296;28;20054;-61
2021/11/09 00:44:00;;;;;;;21.45;11.63;;;;;;;8.08;100.00;101716.31;5014195;28;20100;-61
2021/11/09 00:46:31;;;;;;;25.52;11.48;;;;;;;8.07;100.00;101713.75;5020388;28;20092;-62
2021/11/09 00:49:01;;;;;;;22.60;10.98;;;;;;;8.10;100.00;101722.41;5019324;28;20042;-62
2021/11/09 00:51:28;;;;;;;20.10;11.23;;;;;;;8.13;100.00;101724.91;5021293;28;20092;-61
2021/11/09 00:53:58;;;;;;;23.15;10.57;;;;;;;8.14;100.00;101723.13;5016429;28;20034;-62
2021/11/09 00:56:26;;;;;;;32.28;14.18;;;;;;;8.13;100.00;101724.91;5023623;28;20054;-61
2021/11/09 00:58:57;;;;;;;26.75;11.85;;;;;;;8.15;100.00;101724.88;5014892;28;20038;-61
2021/11/09 01:01:26;;;;;;;18.65;11.23;;;;;;;8.18;100.00;101721.28;5018102;28;20034;-62
2021/11/09 01:03:57;;;;;;;22.10;10.70;;;;;;;8.21;100.00;101721.19;5021161;28;20057;-61
2021/11/09 01:06:27;;;;;;;26.60;11.93;;;;;;;8.18;100.00;101718.66;5021505;28;20083;-60
2021/11/09 01:08:54;;;;;;;23.52;11.57;;;;;;;8.20;100.00;101717.72;5020460;28;20095;-63
2021/11/09 01:11:24;;;;;;;25.33;11.77;;;;;;;8.21;100.00;101722.03;5017234;28;20487;-61
2021/11/09 01:13:54;;;;;;;21.45;10.77;;;;;;;8.21;100.00;101723.81;5017028;28;20053;-61
2021/11/09 01:16:24;;;;;;;25.00;12.23;;;;;;;8.23;100.00;101714.97;5022210;28;20548;-62
2021/11/09 01:18:54;;;;;;;26.95;12.07;;;;;;;8.26;100.00;101724.53;5013569;28;20482;-62
2021/11/09 01:21:24;;;;;;;19.55;11.43;;;;;;;8.28;100.00;101727.94;5024607;28;20037;-62
2021/11/09 01:23:54;;;;;;;18.35;10.63;;;;;;;8.27;100.00;101724.47;5015261;28;20058;-63
2021/11/09 01:26:22;;;;;;;16.23;10.52;;;;;;;8.28;100.00;101720.06;5012735;28;20053;-64
2021/11/09 01:28:53;;;;;;;20.80;10.90;;;;;;;8.31;100.00;101722.59;5015225;28;20045;-61
2021/11/09 01:31:21;;;;;;;17.58;10.50;;;;;;;8.31;100.00;101725.22;5022855;28;20107;-62
2021/11/09 01:33:52;;;;;;;21.70;11.20;;;;;;;8.29;100.00;101725.28;5018553;28;20034;-61
2021/11/09 01:36:22;;;;;;;20.92;10.48;;;;;;;8.25;100.00;101718.41;5016076;28;20553;-61
2021/11/09 01:38:52;;;;;;;16.77;10.32;;;;;;;8.21;100.00;101715.94;5017866;28;20041;-62
2021/11/09 01:41:22;;;;;;;17.75;9.95;;;;;;;8.25;100.00;101712.31;5029472;28;20048;-61
2021/11/09 01:43:52;;;;;;;24.02;10.98;;;;;;;8.27;100.00;101713.13;5020920;28;20119;-61
2021/11/09 01:46:22;;;;;;;12.90;8.75;;;;;;;8.29;100.00;101722.66;5016362;28;20089;-62
2021/11/09 01:48:59;;;;;;;21.63;9.90;;;;;;;8.26;100.00;101720.13;5016522;28;20046;-60
2021/11/09 01:51:26;;;;;;;17.80;10.52;;;;;;;8.24;100.00;101710.56;5019602;28;20517;-63
2021/11/09 01:53:54;;;;;;;19.10;11.02;;;;;;;8.21;100.00;101715.94;5021948;28;20128;-62
2021/11/09 01:56:26;;;;;;;18.00;10.38;;;;;;;8.23;100.00;101712.34;5025104;28;20069;-63
2021/11/09 01:58:59;;;;;;;19.13;10.05;;;;;;;8.18;100.00;101716.88;5014937;28;20048;-61
2021/11/09 02:01:34;;;;;;;15.25;9.73;;;;;;;8.22;100.00;101722.91;5021803;28;20056;-61
2021/11/09 02:04:05;;;;;;;18.70;10.35;;;;;;;8.19;100.00;101725.59;5013487;28;20076;-62
2021/11/09 02:06:33;;;;;;;20.52;10.55;;;;;;;8.18;100.00;101716.88;5015767;28;20053;-62
2021/11/09 02:09:15;;;;;;;17.65;9.52;;;;;;;8.17;100.00;101724.81;5014404;28;20703;-62
2021/11/09 02:11:44;;;;;;;15.20;9.30;;;;;;;8.25;100.00;101725.44;5022806;28;20042;-61
2021/11/09 02:14:15;;;;;;;17.55;9.18;;;;;;;8.23;100.00;101729.84;5014810;28;20033;-61
2021/11/09 02:16:45;;;;;;;20.83;9.25;;;;;;;8.16;100.00;101739.69;5018865;28;20034;-61
2021/11/09 02:19:12;;;;;;;16.20;8.57;;;;;;;8.14;100.00;101738.88;5023215;28;20052;-61
2021/11/09 02:21:45;;;;;;;12.40;8.88;;;;;;;8.15;100.00;101739.72;5019506;28;20025;-61
2021/11/09 02:24:12;;;;;;;12.77;8.43;;;;;;;8.10;100.00;101742.50;5018910;28;20050;-61
2021/11/09 02:26:40;;;;;;;16.00;8.82;;;;;;;8.11;100.00;101733.75;5017320;28;20099;-61
2021/11/09 02:29:08;;;;;;;17.27;8.35;;;;;;;8.09;100.00;101744.25;5011970;28;20080;-64
2021/11/09 02:31:35;;;;;;;13.98;7.75;;;;;;;8.06;100.00;101738.25;5018109;28;20069;-61
2021/11/09 02:34:02;;;;;;;11.20;8.02;;;;;;;8.06;100.00;101740.88;5044327;22;20107;-68
2021/11/09 02:36:41;;;;;;;10.27;7.70;;;;;;;8.11;100.00;101746.84;5007159;28;20524;-68
2021/11/09 02:39:17;;;;;;;14.73;8.68;;;;;;;8.12;100.00;101749.41;5007298;28;20045;-68
2021/11/09 02:41:45;;;;;;;13.13;7.43;;;;;;;8.16;100.00;101749.34;5023158;28;20172;-69
2021/11/09 02:44:21;;;;;;;13.85;8.32;;;;;;;8.13;100.00;101750.28;5036037;28;20063;-69
2021/11/09 02:46:52;;;;;;;12.63;7.72;;;;;;;8.16;100.00;101757.19;5025297;28;20114;-68
2021/11/09 02:49:25;;;;;;;9.43;7.32;;;;;;;8.18;100.00;101765.88;5011690;28;20879;-66
2021/11/09 02:51:55;;;;;;;10.90;7.70;;;;;;;8.19;100.00;101757.09;5026189;28;20076;-67
2021/11/09 02:54:38;;;;;;;12.20;7.22;;;;;;;8.20;100.00;101764.06;5040516;28;20456;-68
2021/11/09 02:57:09;;;;;;;9.57;6.82;;;;;;;8.18;100.00;101758.84;5031187;28;20056;-68
2021/11/09 02:59:45;;;;;;;9.68;5.82;;;;;;;8.25;100.00;101759.53;5044492;28;20140;-68
2021/11/09 03:02:30;;;;;;;7.60;5.25;;;;;;;8.19;100.00;101768.44;5050540;28;20077;-68
2021/11/09 03:10:07;;;;;;;6.07;5.47;;;;;;;8.16;100.00;101771.16;5044807;28;20501;-68
2021/11/09 03:12:42;;;;;;;8.82;5.88;;;;;;;8.11;100.00;101778.31;5018644;28;20044;-68
2021/11/09 03:15:17;;;;;;;9.95;6.00;;;;;;;8.09;100.00;101778.34;5042951;28;20032;-68
2021/11/09 03:17:55;;;;;;;9.68;5.78;;;;;;;8.13;100.00;101777.34;5030214;28;20055;-68
2021/11/09 03:20:36;;;;;;;10.65;6.50;;;;;;;8.12;100.00;101780.03;5044051;28;20041;-70
2021/11/09 03:40:00;;;;;;;8.73;6.05;;;;;;;8.18;100.00;101777.22;5045721;28;20045;-68
2021/11/09 03:45:23;;;;;;;22.10;10.43;;;;;;;8.08;100.00;101799.38;5043750;28;20091;-69
2021/11/09 03:47:55;;;;;;;20.83;9.00;;;;;;;8.05;100.00;101802.09;5047182;28;20044;-68
2021/11/09 03:50:27;;;;;;;21.67;9.32;;;;;;;8.07;100.00;101802.94;5009084;28;20368;-69
2021/11/09 03:53:01;;;;;;;23.02;11.50;;;;;;;8.05;100.00;101800.31;5027837;28;20057;-69
2021/11/09 03:58:21;;;;;;;23.13;9.48;;;;;;;8.01;100.00;101800.47;5047326;28;20037;-68
2021/11/09 04:01:02;;;;;;;30.67;10.45;;;;;;;7.98;100.00;101804.06;5042800;28;20440;-67
2021/11/09 04:06:21;;;;;;;24.67;10.48;;;;;;;8.01;100.00;101803.94;5044797;28;20084;-69
2021/11/09 04:09:05;;;;;;;23.92;8.95;;;;;;;7.98;100.00;101808.44;5012864;28;20049;-65
2021/11/09 04:14:32;;;;;;;21.75;9.95;;;;;;;7.99;100.00;101804.91;5041297;28;20136;-67
2021/11/09 04:17:32;;;;;;;27.25;11.45;;;;;;;8.02;100.00;101810.06;5047070;28;20053;-68
2021/11/09 04:20:13;;;;;;;21.80;10.27;;;;;;;8.02;100.00;101805.69;5041748;28;20545;-69
2021/11/09 04:25:45;;;;;;;24.50;11.80;;;;;;;7.97;100.00;101818.06;5045125;28;20068;-68
2021/11/09 04:28:33;;;;;;;22.48;11.00;;;;;;;7.89;100.00;101821.81;5029801;28;20725;-66
2021/11/09 04:34:36;;;;;;;37.80;11.98;;;;;;;7.90;100.00;101821.75;5044724;28;20032;-67
2021/11/09 04:44:09;;;;;;;22.70;10.23;;;;;;;7.93;100.00;101834.78;5045653;28;20035;-70
2021/11/09 05:10:42;;;;;;;21.00;9.65;;;;;;;8.03;100.00;101866.84;5042992;28;20041;-68
2021/11/09 05:13:10;;;;;;;31.67;11.20;;;;;;;8.09;100.00;101870.16;5045776;28;20049;-67
2021/11/09 05:15:38;;;;;;;33.20;12.30;;;;;;;8.08;100.00;101872.81;5027785;28;20048;-68
2021/11/09 05:18:15;;;;;;;24.83;10.77;;;;;;;8.07;100.00;101882.47;5015431;28;20037;-70
2021/11/09 05:20:42;;;;;;;27.73;10.15;;;;;;;8.04;100.00;101877.28;5039660;28;20041;-67
2021/11/09 05:23:20;;;;;;;23.67;12.07;;;;;;;8.07;100.00;101879.84;5031616;28;20123;-68
2021/11/09 05:25:59;;;;;;;30.45;11.50;;;;;;;8.09;100.00;101887.66;5036134;28;20141;-68
2021/11/09 05:28:26;;;;;;;25.27;11.02;;;;;;;8.05;100.00;101894.75;5048015;28;20044;-70
2021/11/09 05:30:56;;;;;;;29.45;11.82;;;;;;;8.08;100.00;101899.91;5026359;28;20041;-68
2021/11/09 05:33:25;;;;;;;26.15;11.95;;;;;;;8.09;100.00;101904.25;5025950;28;20041;-69
2021/11/09 05:35:59;;;;;;;24.70;11.57;;;;;;;8.12;100.00;101898.06;5032197;28;20037;-67
2021/11/09 05:38:34;;;;;;;30.98;10.45;;;;;;;8.14;100.00;101904.13;5026128;28;20111;-67
2021/11/09 05:41:08;;;;;;;28.10;12.10;;;;;;;8.10;100.00;101911.22;5047775;28;20083;-68
2021/11/09 05:43:35;;;;;;;27.42;12.07;;;;;;;8.11;100.00;101905.06;5044519;28;20044;-69
2021/11/09 05:46:08;;;;;;;27.35;11.43;;;;;;;8.13;100.00;101908.50;5025694;28;20048;-69
2021/11/09 05:48:39;;;;;;;24.08;11.65;;;;;;;8.11;100.00;101915.56;5026625;28;20521;-67
2021/11/09 05:51:24;;;;;;;29.25;11.65;;;;;;;8.17;100.00;101909.28;5012241;28;20041;-68
2021/11/09 05:53:55;;;;;;;24.80;12.60;;;;;;;8.11;100.00;101919.97;5043714;28;20041;-69
2021/11/09 05:56:22;;;;;;;30.52;12.00;;;;;;;8.08;100.00;101931.38;5026114;28;20045;-68
2021/11/09 05:58:52;;;;;;;29.77;13.27;;;;;;;8.04;100.00;101926.25;5031848;28;20037;-67
2021/11/09 06:01:19;;;;;;;26.92;13.52;;;;;;;7.98;100.00;101934.31;5042645;28;20045;-69
2021/11/09 06:03:49;;;;;;;38.88;14.07;;;;;;;7.97;100.00;101936.06;5026363;28;20647;-69
2021/11/09 06:06:23;;;;;;;26.27;14.00;;;;;;;7.98;100.00;101929.91;5043627;28;20051;-68
2021/11/09 06:08:54;;;;;;;29.42;13.77;;;;;;;7.95;100.00;101932.63;5020126;28;20041;-67
2021/11/09 06:11:21;;;;;;;39.55;13.70;;;;;;;7.97;100.00;101935.19;5027570;28;20076;-67
2021/11/09 06:13:49;;;;;;;26.48;12.75;;;;;;;7.97;100.00;101941.31;5043004;28;20074;-67
2021/11/09 06:16:26;;;;;;;23.40;12.73;;;;;;;8.00;100.00;101945.59;5037161;28;20076;-69
2021/11/09 06:18:54;;;;;;;31.58;13.43;;;;;;;8.02;100.00;101955.16;5037958;28;20143;-67
2021/11/09 06:21:25;;;;;;;26.45;12.60;;;;;;;8.04;100.00;101961.22;5024628;28;20036;-68
2021/11/09 06:23:53;;;;;;;25.58;13.63;;;;;;;8.04;100.00;101961.22;5042237;28;20535;-68
2021/11/09 06:26:21;;;;;;;32.83;13.43;;;;;;;8.06;100.00;101967.28;5025624;28;20071;-70
2021/11/09 06:28:51;;;;;;;33.70;13.10;;;;;;;8.10;100.00;101968.94;5008339;28;20115;-72
2021/11/09 06:31:18;;;;;;;35.15;13.82;;;;;;;8.10;100.00;101974.19;5025115;28;20459;-68
2021/11/09 06:33:51;;;;;;;34.55;13.52;;;;;;;8.13;100.00;101976.69;5042400;28;20037;-66
2021/11/09 06:36:18;;;;;;;39.15;13.25;;;;;;;8.14;100.00;101974.94;5039892;28;20169;-69
2021/11/09 06:38:48;;;;;;;32.25;13.07;;;;;;;8.14;100.00;101980.19;5027287;28;20128;-71
2021/11/09 06:41:15;;;;;;;27.55;12.93;;;;;;;8.19;100.00;101985.28;5041002;28;20126;-68
2021/11/09 06:43:45;;;;;;;26.80;12.95;;;;;;;8.28;100.00;101996.41;5044174;28;20033;-65
2021/11/09 06:46:24;;;;;;;34.63;13.23;;;;;;;8.23;100.00;101987.78;5027663;28;20047;-68
2021/11/09 06:48:56;;;;;;;29.35;12.50;;;;;;;8.24;100.00;102001.78;5040903;28;20041;-71
2021/11/09 06:51:23;;;;;;;29.20;12.20;;;;;;;8.27;100.00;102004.31;5044418;28;20436;-66
2021/11/09 06:53:54;;;;;;;32.50;14.18;;;;;;;8.26;100.00;102015.72;5043839;28;20515;-66
2021/11/09 06:56:21;;;;;;;28.92;12.48;;;;;;;8.31;100.00;102013.84;5043928;28;20136;-67
2021/11/09 06:58:48;;;;;;;29.48;14.68;;;;;;;8.30;100.00;102020.84;5017014;28;20136;-67
2021/11/09 07:01:30;;;;;;;29.80;13.18;;;;;;;8.33;100.00;102026.03;5027801;28;20088;-68
2021/11/09 07:03:57;;;;;;;32.30;13.18;;;;;;;8.33;100.00;102027.75;5041953;28;20455;-67
2021/11/09 07:06:31;;;;;;;28.20;13.25;;;;;;;8.28;100.00;102040.13;5044120;28;20069;-68
2021/11/09 07:08:58;;;;;;;24.33;11.80;;;;;;;8.26;100.00;102050.69;5024312;28;20136;-69
2021/11/09 07:11:26;;;;;;;29.75;13.38;;;;;;;8.28;100.00;102050.63;5010699;28;20045;-69
2021/11/09 07:13:59;;;;;;;23.17;11.38;;;;;;;8.35;100.00;102053.06;5044777;28;20039;-71
2021/11/09 07:16:29;;;;;;;27.13;12.05;;;;;;;8.34;100.00;102053.13;5010379;28;20049;-69
2021/11/09 07:19:02;;;;;;;22.00;12.52;;;;;;;8.39;100.00;102059.13;5028754;28;20063;-70
2021/11/09 07:21:31;;;;;;;28.67;12.18;;;;;;;8.44;100.00;102069.50;5039141;28;20044;-67
2021/11/09 07:24:00;;;;;;;28.00;11.85;;;;;;;8.45;100.00;102072.06;5025862;28;20496;-68
2021/11/09 07:26:27;;;;;;;29.60;13.20;;;;;;;8.41;100.00;102075.69;5039921;28;20052;-67
2021/11/09 07:28:58;;;;;;;35.90;15.40;;;;;;;8.43;100.00;102081.78;5044078;28;20037;-69
2021/11/09 07:31:27;;;;;;;57.15;18.83;;;;;;;8.40;100.00;102079.22;5047398;28;20076;-69
2021/11/09 07:34:05;;;;;;;36.45;13.30;;;;;;;8.44;100.00;102080.00;5030266;28;20575;-69
2021/11/09 07:36:41;;;;;;;32.45;14.05;;;;;;;8.49;100.00;102084.22;5028428;28;20621;-73
2021/11/09 07:39:25;;;;;;;35.60;13.43;;;;;;;8.53;100.00;102080.59;5008720;28;20037;-67
2021/11/09 07:42:01;;;;;;;29.42;13.80;;;;;;;8.54;100.00;102082.31;5013337;28;20053;-68
2021/11/09 07:44:28;;;;;;;27.23;13.05;;;;;;;8.49;100.00;102081.59;5027806;28;20048;-68
2021/11/09 07:46:55;;;;;;;25.27;12.93;;;;;;;8.62;100.00;102084.75;5031612;28;20041;-69
2021/11/09 07:49:23;;;;;;;32.92;12.40;;;;;;;8.60;100.00;102090.06;5029073;28;20084;-69
2021/11/09 07:51:53;;;;;;;30.02;13.05;;;;;;;8.57;100.00;102084.88;5034376;28;20060;-67
2021/11/09 07:54:34;;;;;;;29.23;13.70;;;;;;;8.59;100.00;102084.81;5050513;28;20060;-68
2021/11/09 07:57:09;;;;;;;26.35;12.77;;;;;;;8.60;100.00;102082.19;5034509;28;20473;-66
2021/11/09 07:59:51;;;;;;;30.60;15.13;;;;;;;8.61;100.00;102097.03;5044565;28;20029;-70
2021/11/09 08:05:04;;;;;;;26.75;14.20;;;;;;;8.73;100.00;102102.81;5016337;28;20045;-69
2021/11/09 08:07:53;;;;;;;26.85;13.07;;;;;;;8.81;100.00;102106.09;5020130;28;20067;-67
2021/11/09 08:10:21;;;;;;;33.80;14.73;;;;;;;8.76;100.00;102114.09;5027977;28;20056;-70
2021/11/09 08:12:48;;;;;;;29.38;13.95;;;;;;;8.75;100.00;102119.41;5048787;28;20422;-66
2021/11/09 08:15:16;;;;;;;22.13;12.27;;;;;;;8.78;100.00;102116.69;5043242;28;20513;-70
2021/11/09 08:17:43;;;;;;;24.65;11.45;;;;;;;8.76;100.00;102124.59;5030301;28;20051;-68
2021/11/09 08:20:10;;;;;;;34.50;13.23;;;;;;;8.70;100.00;102119.53;5044523;28;20041;-67
2021/11/09 08:22:41;;;;;;;27.92;11.90;;;;;;;8.75;100.00;102127.28;5048409;28;20063;-66
2021/11/09 08:25:14;;;;;;;26.50;12.10;;;;;;;8.73;100.00;102129.94;5010189;28;20041;-66
2021/11/09 08:27:41;;;;;;;24.23;13.32;;;;;;;8.79;100.00;102131.56;5032749;28;20053;-66
2021/11/09 08:30:09;;;;;;;32.80;13.10;;;;;;;8.71;100.00;102133.53;5030970;28;20053;-71
2021/11/09 08:32:36;;;;;;;28.42;11.95;;;;;;;8.67;100.00;102130.13;5029895;28;20045;-67
2021/11/09 08:35:06;;;;;;;35.15;14.40;;;;;;;8.63;100.00;102134.56;5029246;28;20049;-68
2021/11/09 08:37:34;;;;;;;37.05;14.75;;;;;;;8.60;100.00;102136.41;5045112;28;20067;-69
2021/11/09 08:40:08;;;;;;;31.73;12.80;;;;;;;8.71;100.00;102138.78;5023823;28;20041;-67
2021/11/09 08:42:39;;;;;;;23.20;10.90;;;;;;;8.79;100.00;102131.56;5028839;28;20041;-67
2021/11/09 08:45:20;;;;;;;21.75;11.60;;;;;;;8.75;100.00;102128.16;5042549;28;20057;-68
2021/11/09 08:47:52;;;;;;;27.13;13.48;;;;;;;8.85;100.00;102132.22;5047527;28;20351;-68
2021/11/09 08:50:21;;;;;;;24.60;12.80;;;;;;;8.87;100.00;102135.69;5029759;28;20055;-67
2021/11/09 08:52:49;;;;;;;33.13;13.27;;;;;;;8.81;100.00;102138.47;5028498;28;20223;-68
2021/11/09 08:55:34;;;;;;;27.38;12.25;;;;;;;8.94;100.00;102132.88;5027079;28;20051;-68
2021/11/09 09:06:06;;;;;;;23.90;12.23;;;;;;;9.18;100.00;102133.94;5045148;28;20049;-67
2021/11/09 09:08:34;;;;;;;19.50;11.68;;;;;;;9.22;100.00;102136.44;5024354;28;20061;-67
2021/11/09 09:11:07;;;;;;;28.50;12.98;;;;;;;9.29;100.00;102134.50;5042794;28;20087;-69
2021/11/09 09:13:34;;;;;;;27.98;13.50;;;;;;;9.26;100.00;102139.84;5031041;28;20148;-67
2021/11/09 09:16:02;;;;;;;24.98;12.05;;;;;;;9.32;100.00;102142.28;5018366;28;20398;-67
2021/11/09 09:18:29;;;;;;;21.90;11.45;;;;;;;9.36;100.00;102136.88;5046400;28;20053;-68
2021/11/09 09:21:00;;;;;;;23.70;11.93;;;;;;;9.38;100.00;102136.88;5043470;28;20100;-68
2021/11/09 09:23:33;;;;;;;31.15;13.18;;;;;;;9.44;100.00;102136.66;5044045;28;20536;-68
2021/11/09 09:56:02;;;;;;;25.33;10.35;;;;;;;11.56;95.25;102139.03;5042853;28;20144;-68
2021/11/09 09:58:31;;;;;;;27.08;10.68;;;;;;;11.72;93.66;102141.94;5027908;28;20452;-68
2021/11/09 10:00:58;;;;;;;27.23;11.32;;;;;;;12.27;91.37;102137.09;5027205;28;20148;-69
2021/11/09 10:03:44;;;;;;;23.92;10.48;;;;;;;12.37;89.79;102140.19;5027446;28;20643;-69
2021/11/09 10:06:12;;;;;;;29.45;11.25;;;;;;;12.29;89.31;102147.56;4992022;28;20777;-68
2021/11/09 10:08:49;;;;;;;25.15;10.90;;;;;;;12.16;88.19;102141.97;5029571;28;20430;-68
2021/11/09 10:11:32;;;;;;;28.38;12.25;;;;;;;12.02;88.09;102141.66;5028315;28;20053;-68
2021/11/09 10:14:01;;;;;;;22.73;10.40;;;;;;;12.64;87.18;102141.66;5043784;28;20513;-69
2021/11/09 10:16:28;;;;;;;28.23;11.27;;;;;;;13.39;84.64;102140.97;5015772;28;20045;-69
2021/11/09 10:18:56;;;;;;;22.17;10.15;;;;;;;13.60;81.89;102143.53;5032879;28;20147;-70
2021/11/09 10:21:40;;;;;;;29.65;10.20;;;;;;;13.65;80.42;102141.53;5044965;28;20049;-68
2021/11/09 10:24:27;;;;;;;26.02;10.13;;;;;;;13.94;77.98;102143.63;5038641;28;20041;-69
2021/11/09 10:26:57;;;;;;;18.67;8.68;;;;;;;14.36;78.16;102141.56;5044912;28;20076;-68
2021/11/09 10:29:41;;;;;;;21.75;9.60;;;;;;;14.78;75.45;102145.63;5039801;28;20064;-68
2021/11/09 10:32:12;;;;;;;20.45;8.73;;;;;;;14.94;73.33;102146.53;5044200;28;20061;-68
2021/11/09 10:34:40;;;;;;;22.35;8.50;;;;;;;15.15;71.31;102158.66;5041073;28;20046;-68
2021/11/09 10:37:19;;;;;;;19.15;7.57;;;;;;;14.99;70.83;102155.09;5046530;28;20064;-68
2021/11/09 10:40:12;;;;;;;14.77;6.72;;;;;;;14.69;72.13;102157.56;5043042;28;20053;-68
2021/11/09 10:42:41;;;;;;;18.10;6.80;;;;;;;14.18;73.37;102156.56;5045799;28;20049;-67
2021/11/09 10:45:11;;;;;;;16.55;7.22;;;;;;;13.47;75.15;102163.56;5048074;28;20069;-68
2021/11/09 10:47:44;;;;;;;22.13;7.43;;;;;;;12.83;77.14;102170.81;5015077;28;20065;-67
2021/11/09 10:50:24;;;;;;;16.10;7.05;;;;;;;12.43;78.75;102161.09;5028388;28;20071;-68
2021/11/09 10:53:14;;;;;;;27.35;6.88;;;;;;;12.28;79.76;102172.28;5040415;28;20140;-68
2021/11/09 11:04:36;;;;;;;12.93;6.07;;;;;;;12.09;82.00;102175.66;5043246;28;20057;-68
2021/11/09 11:07:06;;;;;;;17.35;4.97;;;;;;;12.27;79.89;102168.78;5028478;28;20055;-67
2021/11/09 11:09:40;;;;;;;16.15;5.78;;;;;;;12.45;78.04;102161.00;5043465;28;20345;-68
2021/11/09 11:12:13;;;;;;;10.90;5.30;;;;;;;12.51;78.37;102166.03;5045679;28;20071;-68
2021/11/09 11:14:45;;;;;;;9.55;5.00;;;;;;;12.75;74.99;102164.13;5037752;28;20504;-68
2021/11/09 11:17:17;;;;;;;10.95;5.28;;;;;;;13.26;74.18;102162.75;5032974;28;20260;-68
2021/11/09 11:19:46;;;;;;;19.27;7.03;;;;;;;14.06;72.73;102159.84;5026453;28;20527;-68
2021/11/09 11:22:16;;;;;;;13.90;5.72;;;;;;;14.49;68.65;102155.94;5035883;28;20061;-67
2021/11/09 11:24:45;;;;;;;18.27;5.68;;;;;;;14.59;68.22;102159.84;5046510;28;20514;-67
2021/11/09 11:27:13;;;;;;;12.13;5.72;;;;;;;14.86;66.70;102159.31;5047576;28;20056;-67
2021/11/09 11:29:41;;;;;;;15.95;4.88;;;;;;;14.62;66.76;102151.72;5032001;28;20040;-69
2021/11/09 11:32:11;;;;;;;10.55;4.05;;;;;;;14.27;64.69;102144.66;5033366;28;20056;-67
2021/11/09 11:34:39;;;;;;;11.70;4.90;;;;;;;14.11;66.61;102144.59;5029506;28;20048;-67
2021/11/09 11:37:06;;;;;;;18.38;5.60;;;;;;;13.80;68.60;102151.38;5044834;28;20493;-67
2021/11/09 11:39:35;;;;;;;10.60;4.88;;;;;;;13.79;69.98;102148.81;5027284;28;20060;-67
2021/11/09 11:42:08;;;;;;;13.93;4.95;;;;;;;13.50;68.17;102150.19;5053955;28;20052;-67
2021/11/09 11:44:38;;;;;;;15.45;4.22;;;;;;;13.33;67.85;102161.56;5045245;28;20173;-68
2021/11/09 11:47:19;;;;;;;6.65;3.30;;;;;;;13.08;67.94;102148.56;5019996;28;20045;-68
2021/11/09 11:49:49;;;;;;;14.35;3.80;;;;;;;12.89;69.14;102146.72;5030732;28;20053;-67
2021/11/09 11:52:19;;;;;;;9.27;2.88;;;;;;;12.71;69.31;102138.75;5032650;28;20080;-68
2021/11/09 11:54:59;;;;;;;2.67;1.60;;;;;;;12.49;65.49;102136.19;5044934;28;20140;-67
2021/11/09 11:57:41;;;;;;;10.65;2.38;;;;;;;12.17;67.56;102138.41;5045384;28;20053;-68
2021/11/09 12:00:28;;;;;;;8.98;1.70;;;;;;;12.15;68.02;102135.81;5047183;28;20064;-67
2021/11/09 12:02:57;;;;;;;7.85;2.35;;;;;;;11.99;66.72;102140.00;5033160;28;20063;-68
2021/11/09 12:05:38;;;;;;;10.60;2.80;;;;;;;11.86;68.14;102134.38;5040897;28;20057;-67
2021/11/09 12:08:06;;;;;;;7.40;2.17;;;;;;;11.87;67.97;102124.66;5046466;28;20060;-67
2021/11/09 12:10:49;;;;;;;9.27;3.50;;;;;;;11.80;68.60;102134.59;5029510;28;20059;-67
2021/11/09 12:13:19;;;;;;;8.57;2.85;;;;;;;11.61;70.35;102130.94;5025860;28;20049;-67
2021/11/09 12:16:00;;;;;;;6.18;2.20;;;;;;;11.45;70.17;102130.69;5026895;28;20485;-68
2021/11/09 12:18:27;;;;;;;9.05;2.53;;;;;;;11.44;71.11;102136.91;5028232;28;20049;-67
2021/11/09 12:20:56;;;;;;;15.32;2.47;;;;;;;11.33;70.64;102142.56;5045138;28;20076;-67
2021/11/09 12:23:23;;;;;;;11.40;2.60;;;;;;;11.29;70.35;102135.69;5027523;28;20466;-68
2021/11/09 12:25:58;;;;;;;5.47;1.90;;;;;;;11.14;69.96;102129.22;5046217;28;20079;-68
2021/11/09 12:28:36;;;;;;;7.32;1.85;;;;;;;11.39;69.29;102133.53;5045088;28;20060;-68
2021/11/09 12:31:12;;;;;;;5.53;1.98;;;;;;;11.44;69.79;102122.81;5041947;28;20549;-69
2021/11/09 12:33:48;;;;;;;10.93;1.92;;;;;;;11.53;69.96;102125.13;5051648;28;20059;-68
2021/11/09 12:36:17;;;;;;;;;;;;;;;11.59;70.42;102125.75;5031329;28;20044;-68
2021/11/09 12:38:46;;;;;;;7.90;2.85;;;;;;;11.69;70.03;102128.00;5025821;28;20249;-68
2021/11/09 12:41:15;;;;;;;11.85;3.40;;;;;;;11.88;69.96;102126.38;5043213;28;20386;-68
2021/11/09 12:43:53;;;;;;;7.00;2.72;;;;;;;12.09;69.10;102125.50;5044513;28;20152;-68
2021/11/09 12:46:33;;;;;;;5.35;2.28;;;;;;;12.12;69.24;102122.75;5032043;28;20406;-68
2021/11/09 12:49:12;;;;;;;6.30;2.25;;;;;;;11.95;69.11;102119.94;5046010;28;20437;-67
2021/11/09 12:51:50;;;;;;;8.10;2.22;;;;;;;11.89;68.79;102118.41;5027831;28;20694;-68
2021/11/09 12:54:28;;;;;;;5.10;1.98;;;;;;;12.00;69.12;102120.59;5045483;28;20057;-68
2021/11/09 12:57:00;;;;;;;7.93;2.30;;;;;;;12.37;67.96;102116.44;5029290;28;20079;-68
2021/11/09 12:59:37;;;;;;;7.72;2.35;;;;;;;12.54;67.71;102113.94;5053016;28;20080;-68
2021/11/09 13:04:46;;;;;;;11.18;2.90;;;;;;;13.87;64.87;102105.16;5042590;28;20052;-67
2021/11/09 13:07:37;;;;;;;8.35;2.78;;;;;;;23.24;41.76;102100.13;5042560;28;20053;-67
2021/11/09 13:10:10;;;;;;;13.63;2.80;;;;;;;30.50;26.44;102097.72;5026146;28;20053;-68
2021/11/09 13:12:38;;;;;;;9.57;3.13;;;;;;;33.21;22.60;102095.94;5029159;28;20137;-69
2021/11/09 13:15:08;;;;;;;8.60;3.08;;;;;;;35.21;19.34;102103.03;5042014;28;20048;-68
2021/11/09 13:17:45;;;;;;;7.63;2.42;;;;;;;36.68;17.67;102103.59;5030477;28;20057;-68
2021/11/09 13:22:51;;;;;;;6.80;2.13;;;;;;;38.63;15.67;102112.31;5048086;28;20059;-68
2021/11/09 13:25:37;;;;;;;5.68;2.75;;;;;;;39.07;15.16;102104.44;5041480;28;20047;-68
2021/11/09 13:28:11;;;;;;;10.93;2.20;;;;;;;39.37;14.63;102120.78;5023977;28;20052;-68
2021/11/09 13:30:59;;;;;;;8.10;1.85;;;;;;;37.19;15.11;102101.50;5026923;28;20060;-68
2021/11/09 13:33:28;;;;;;;5.20;1.92;;;;;;;38.37;15.10;102097.16;5043114;28;20053;-68
2021/11/09 13:35:57;;;;;;;5.10;1.92;;;;;;;38.53;14.41;102099.16;5020971;28;20048;-69
2021/11/09 13:38:38;;;;;;;6.65;2.13;;;;;;;37.70;14.73;102101.00;5028801;28;20053;-69
2021/11/09 13:41:10;;;;;;;5.82;2.17;;;;;;;30.74;20.08;102104.78;5046071;28;20087;-69
2021/11/09 13:43:46;;;;;;;5.93;2.08;;;;;;;24.11;29.20;102112.84;5032679;28;20053;-70